createdAt,value
2023-04-18T00:01:24.930Z,101409.53
2023-04-18T00:03:52.023Z,101404.66
2023-04-18T00:06:19.408Z,101407.03
2023-04-18T00:08:46.576Z,101407.81
2023-04-18T00:11:13.156Z,101404.25
2023-04-18T00:13:40.789Z,101404.56
2023-04-18T00:16:13.285Z,101402.84
2023-04-18T00:18:40.211Z,101398.41
2023-04-18T00:21:08.591Z,101394.69
2023-04-18T00:23:35.912Z,101393.34
2023-04-18T00:26:02.775Z,101400.81
2023-04-18T00:28:29.547Z,101394.69
2023-04-18T00:30:56.379Z,101400.56
2023-04-18T00:33:23.091Z,101399.28
2023-04-18T00:35:49.700Z,101398.34
2023-04-18T00:38:16.380Z,101389.19
2023-04-18T00:40:43.224Z,101399.72
2023-04-18T00:43:09.888Z,101388.84
2023-04-18T00:45:37.224Z,101394.56
2023-04-18T00:48:04.271Z,101397.97
2023-04-18T00:50:31.649Z,101396.56
2023-04-18T00:52:58.562Z,101395.84
2023-04-18T00:55:25.544Z,101393.59
2023-04-18T00:57:52.311Z,101396.19
2023-04-18T01:00:19.126Z,101387.63
2023-04-18T01:02:47.177Z,101392.22
2023-04-18T01:05:14.051Z,101377.94
2023-04-18T01:07:41.819Z,101387.16
2023-04-18T01:10:10.284Z,101395.47
2023-04-18T01:12:37.742Z,101393.97
2023-04-18T01:15:05.756Z,101389.19
2023-04-18T01:17:34.686Z,101388.72
2023-04-18T01:20:06.405Z,101391.63
2023-04-18T01:22:33.582Z,101385.31
2023-04-18T01:25:00.285Z,101395.72
2023-04-18T01:27:26.944Z,101392.47
2023-04-18T01:29:53.707Z,101386.16
2023-04-18T01:32:20.692Z,101390.53
2023-04-18T01:34:47.681Z,101388.38
2023-04-18T01:37:14.500Z,101384.59
2023-04-18T01:39:41.116Z,101390.22
2023-04-18T01:42:07.806Z,101388.38
2023-04-18T01:44:34.472Z,101385.13
2023-04-18T01:47:01.204Z,101383.78
2023-04-18T01:49:27.924Z,101379.69
2023-04-18T01:51:54.601Z,101377.31
2023-04-18T01:54:21.257Z,101373.03
2023-04-18T01:56:47.914Z,101374.41
2023-04-18T01:59:14.531Z,101370.09
2023-04-18T02:01:41.143Z,101371.59
2023-04-18T02:04:07.852Z,101360.16
2023-04-18T02:06:34.632Z,101356.09
2023-04-18T02:09:01.388Z,101367.34
2023-04-18T02:11:28.003Z,101360.69
2023-04-18T02:13:54.724Z,101368.31
2023-04-18T02:16:21.620Z,101365.41
2023-04-18T02:18:49.709Z,101362.97
2023-04-18T02:21:16.319Z,101369.72
2023-04-18T02:23:42.923Z,101357.25
2023-04-18T02:26:09.634Z,101359.97
2023-04-18T02:28:39.043Z,101352.81
2023-04-18T02:31:06.302Z,101353.50
2023-04-18T02:33:32.919Z,101360.81
2023-04-18T02:35:59.611Z,101356.84
2023-04-18T02:38:26.204Z,101359.22
2023-04-18T02:40:52.837Z,101356.41
2023-04-18T02:43:19.426Z,101355.84
2023-04-18T02:45:46.019Z,101361.59
2023-04-18T02:48:12.729Z,101351.53
2023-04-18T02:50:39.376Z,101353.69
2023-04-18T02:53:06.046Z,101354.88
2023-04-18T02:55:32.701Z,101348.22
2023-04-18T02:57:59.273Z,101358.28
2023-04-18T03:00:25.993Z,101361.38
2023-04-18T03:02:53.370Z,101363.63
2023-04-18T03:05:20.344Z,101351.88
2023-04-18T03:07:46.985Z,101356.56
2023-04-18T03:10:13.711Z,101348.69
2023-04-18T03:12:40.387Z,101354.25
2023-04-18T03:15:07.679Z,101343.81
2023-04-18T03:17:34.663Z,101337.97
2023-04-18T03:20:01.272Z,101339.28
2023-04-18T03:22:27.905Z,101350.19
2023-04-18T03:24:54.641Z,101353.88
2023-04-18T03:27:21.230Z,101351.69
2023-04-18T03:29:47.838Z,101351.50
2023-04-18T03:32:14.425Z,101348.78
2023-04-18T03:34:41.056Z,101348.41
2023-04-18T03:37:07.702Z,101355.19
2023-04-18T03:39:34.300Z,101353.09
2023-04-18T03:42:02.113Z,101353.09
2023-04-18T03:44:28.744Z,101353.09
2023-04-18T03:46:56.065Z,101341.81
2023-04-18T03:49:22.756Z,101349.16
2023-04-18T03:51:49.341Z,101341.41
2023-04-18T03:54:16.757Z,101348.19
2023-04-18T03:56:44.242Z,101349.03
2023-04-18T03:59:11.680Z,101353.63
2023-04-18T04:01:38.397Z,101344.44
2023-04-18T04:04:05.577Z,101336.34
2023-04-18T04:06:32.551Z,101348.94
2023-04-18T04:08:59.186Z,101345.66
2023-04-18T04:11:26.059Z,101346.50
2023-04-18T04:13:52.993Z,101343.41
2023-04-18T04:16:19.737Z,101343.13
2023-04-18T04:18:46.404Z,101348.94
2023-04-18T04:21:13.070Z,101357.22
2023-04-18T04:23:42.242Z,101346.06
2023-04-18T04:26:09.187Z,101351.78
2023-04-18T04:28:36.183Z,101355.53
2023-04-18T04:31:03.464Z,101335.63
2023-04-18T04:33:33.324Z,101354.69
2023-04-18T04:36:01.344Z,101346.63
2023-04-18T04:38:31.017Z,101340.59
2023-04-18T04:40:58.461Z,101348.31
2023-04-18T04:43:26.119Z,101347.09
2023-04-18T04:45:53.865Z,101344.94
2023-04-18T04:48:22.124Z,101338.63
2023-04-18T04:50:53.691Z,101338.25
2023-04-18T04:53:20.440Z,101345.50
2023-04-18T04:55:47.267Z,101352.28
2023-04-18T04:58:13.853Z,101358.28
2023-04-18T05:00:40.492Z,101350.28
2023-04-18T05:03:08.373Z,101357.63
2023-04-18T05:05:35.297Z,101349.44
2023-04-18T05:08:02.212Z,101351.13
2023-04-18T05:10:28.985Z,101353.75
2023-04-18T05:12:55.664Z,101344.47
2023-04-18T05:15:23.197Z,101353.00
2023-04-18T05:17:49.852Z,101356.69
2023-04-18T05:20:16.557Z,101352.63
2023-04-18T05:22:43.176Z,101360.44
2023-04-18T05:25:10.308Z,101353.28
2023-04-18T05:27:36.936Z,101352.00
2023-04-18T05:30:03.717Z,101358.84
2023-04-18T05:32:30.347Z,101360.44
2023-04-18T05:34:56.989Z,101360.53
2023-04-18T05:37:23.749Z,101357.06
2023-04-18T05:39:50.508Z,101365.44
2023-04-18T05:42:17.112Z,101370.41
2023-04-18T05:44:43.730Z,101366.19
2023-04-18T05:47:10.373Z,101372.94
2023-04-18T05:49:37.006Z,101377.66
2023-04-18T05:52:03.800Z,101370.78
2023-04-18T05:54:30.399Z,101373.59
2023-04-18T05:56:57.308Z,101380.53
2023-04-18T05:59:24.178Z,101387.31
2023-04-18T06:01:51.521Z,101379.81
2023-04-18T06:04:20.298Z,101381.69
2023-04-18T06:06:47.420Z,101376.31
2023-04-18T06:09:14.041Z,101385.28
2023-04-18T06:11:40.671Z,101380.28
2023-04-18T06:14:07.900Z,101390.31
2023-04-18T06:16:37.269Z,101383.28
2023-04-18T06:19:05.271Z,101377.28
2023-04-18T06:21:32.181Z,101381.97
2023-04-18T06:23:59.099Z,101378.84
2023-04-18T06:26:25.729Z,101383.00
2023-04-18T06:28:52.517Z,101383.06
2023-04-18T06:31:19.237Z,101382.63
2023-04-18T06:33:45.837Z,101396.38
2023-04-18T06:36:12.575Z,101383.56
2023-04-18T06:38:39.191Z,101383.00
2023-04-18T06:41:05.881Z,101385.25
2023-04-18T06:43:32.479Z,101384.22
2023-04-18T06:45:59.489Z,101379.59
2023-04-18T06:48:26.154Z,101388.94
2023-04-18T06:50:52.829Z,101397.56
2023-04-18T06:53:19.665Z,101398.88
2023-04-18T06:55:46.354Z,101396.28
2023-04-18T06:58:16.059Z,101398.22
2023-04-18T07:00:43.237Z,101391.53
2023-04-18T07:03:13.647Z,101405.00
2023-04-18T07:05:40.769Z,101399.72
2023-04-18T07:08:08.217Z,101404.59
2023-04-18T07:10:34.892Z,101388.91
2023-04-18T07:13:01.723Z,101390.00
2023-04-18T07:15:28.627Z,101388.81
2023-04-18T07:17:55.289Z,101385.56
2023-04-18T07:20:21.979Z,101387.34
2023-04-18T07:22:48.830Z,101390.06
2023-04-18T07:25:15.558Z,101385.81
2023-04-18T07:27:42.461Z,101386.25
2023-04-18T07:30:09.767Z,101383.84
2023-04-18T07:32:36.410Z,101384.13
2023-04-18T07:35:04.456Z,101382.59
2023-04-18T07:37:31.559Z,101390.22
2023-04-18T07:39:58.895Z,101389.38
2023-04-18T07:42:25.570Z,101390.53
2023-04-18T07:44:57.916Z,101390.16
2023-04-18T07:47:26.907Z,101386.47
2023-04-18T07:49:55.143Z,101380.25
2023-04-18T07:52:21.889Z,101392.09
2023-04-18T07:54:48.512Z,101371.31
2023-04-18T07:57:15.395Z,101374.78
2023-04-18T07:59:42.144Z,101375.09
2023-04-18T08:02:08.879Z,101379.38
2023-04-18T08:04:35.783Z,101382.00
2023-04-18T08:07:02.543Z,101383.09
2023-04-18T08:09:29.180Z,101375.09
2023-04-18T08:11:56.787Z,101376.44
2023-04-18T08:14:23.832Z,101365.28
2023-04-18T08:16:50.529Z,101366.94
2023-04-18T08:19:17.217Z,101372.53
2023-04-18T08:21:43.798Z,101358.53
2023-04-18T08:24:10.440Z,101369.19
2023-04-18T08:26:37.198Z,101366.09
2023-04-18T08:29:03.912Z,101366.59
2023-04-18T08:31:32.202Z,101361.38
2023-04-18T08:33:58.883Z,101363.22
2023-04-18T08:36:26.008Z,101366.69
2023-04-18T08:38:52.698Z,101367.88
2023-04-18T08:41:23.373Z,101357.88
2023-04-18T08:43:50.030Z,101352.53
2023-04-18T08:46:17.271Z,101364.41
2023-04-18T08:48:44.763Z,101347.38
2023-04-18T08:51:11.464Z,101346.78
2023-04-18T08:53:39.566Z,101356.19
2023-04-18T08:56:10.455Z,101351.19
2023-04-18T08:58:37.241Z,101338.69
2023-04-18T09:01:04.239Z,101346.75
2023-04-18T09:03:42.137Z,101335.19
2023-04-18T09:06:10.413Z,101331.44
2023-04-18T09:08:37.084Z,101355.47
2023-04-18T09:11:26.247Z,101341.16
2023-04-18T09:13:53.441Z,101340.63
2023-04-18T09:16:22.483Z,101353.25
2023-04-18T09:19:13.256Z,101342.94
2023-04-18T09:21:42.541Z,101336.88
2023-04-18T09:24:27.221Z,101344.25
2023-04-18T09:26:55.994Z,101330.34
2023-04-18T09:29:47.082Z,101324.44
2023-04-18T09:32:25.269Z,101349.09
2023-04-18T09:34:54.460Z,101326.13
2023-04-18T09:37:21.921Z,101331.19
2023-04-18T09:39:49.925Z,101328.25
2023-04-18T09:42:17.541Z,101321.72
2023-04-18T09:45:07.072Z,101317.72
2023-04-18T09:47:35.383Z,101319.00
2023-04-18T09:50:07.768Z,101316.03
2023-04-18T09:52:36.929Z,101318.53
2023-04-18T09:55:11.313Z,101310.31
2023-04-18T09:57:41.578Z,101310.06
2023-04-18T10:00:13.877Z,101306.72
2023-04-18T10:02:48.664Z,101323.13
2023-04-18T10:05:18.814Z,101317.25
2023-04-18T10:07:48.796Z,101302.53
2023-04-18T10:10:15.949Z,101301.25
2023-04-18T10:12:43.364Z,101299.09
2023-04-18T10:15:11.345Z,101290.66
2023-04-18T10:18:02.832Z,101295.06
2023-04-18T10:20:33.060Z,101299.50
2023-04-18T10:23:00.606Z,101291.50
2023-04-18T10:25:39.620Z,101287.72
2023-04-18T10:28:08.126Z,101279.22
2023-04-18T10:30:40.564Z,101277.91
2023-04-18T10:33:30.477Z,101272.00
2023-04-18T10:36:08.628Z,101273.03
2023-04-18T10:38:38.845Z,101272.38
2023-04-18T10:41:29.146Z,101276.16
2023-04-18T10:44:11.478Z,101269.94
2023-04-18T10:46:43.792Z,101268.75
2023-04-18T10:49:39.755Z,101267.06
2023-04-18T10:52:06.877Z,101272.78
2023-04-18T10:54:51.053Z,101245.59
2023-04-18T10:57:17.819Z,101261.41
2023-04-18T10:59:49.479Z,101259.59
2023-04-18T11:02:29.626Z,101259.28
2023-04-18T11:04:58.667Z,101255.75
2023-04-18T11:07:39.105Z,101248.84
2023-04-18T11:10:07.172Z,101259.31
2023-04-18T11:12:36.310Z,101262.59
2023-04-18T11:15:09.605Z,101250.50
2023-04-18T11:17:39.728Z,101247.94
2023-04-18T11:20:09.289Z,101251.00
2023-04-18T11:22:50.862Z,101244.22
2023-04-18T11:25:19.503Z,101236.03
2023-04-18T11:27:48.445Z,101241.41
2023-04-18T11:30:15.888Z,101242.69
2023-04-18T11:32:42.567Z,101233.69
2023-04-18T11:35:11.271Z,101232.56
2023-04-18T11:37:39.325Z,101222.38
2023-04-18T11:40:08.586Z,101223.03
2023-04-18T11:42:36.182Z,101221.19
2023-04-18T11:45:03.635Z,101206.16
2023-04-18T11:47:34.531Z,101221.81
2023-04-18T11:50:03.899Z,101226.00
2023-04-18T11:52:32.195Z,101193.25
2023-04-18T11:55:21.471Z,101224.06
2023-04-18T11:57:59.030Z,101194.44
2023-04-18T12:00:33.771Z,101202.16
2023-04-18T12:03:02.310Z,101195.19
2023-04-18T12:05:37.096Z,101195.50
2023-04-18T12:08:08.998Z,101190.31
2023-04-18T12:10:36.167Z,101188.53
2023-04-18T12:13:06.769Z,101181.44
2023-04-18T12:15:34.888Z,101189.97
2023-04-18T12:18:03.384Z,101171.19
2023-04-18T12:20:40.309Z,101167.81
2023-04-18T12:23:07.855Z,101183.06
2023-04-18T12:25:35.059Z,101179.81
2023-04-18T12:28:04.285Z,101187.38
2023-04-18T12:30:36.008Z,101163.13
2023-04-18T12:33:04.734Z,101165.69
2023-04-18T12:35:32.433Z,101161.53
2023-04-18T12:38:00.817Z,101154.34
2023-04-18T12:40:28.882Z,101183.69
2023-04-18T12:42:56.226Z,101169.94
2023-04-18T12:45:24.382Z,101159.63
2023-04-18T12:47:52.435Z,101160.41
2023-04-18T12:50:24.483Z,101154.84
2023-04-18T12:52:55.889Z,101161.44
2023-04-18T12:55:23.014Z,101158.38
2023-04-18T12:57:52.226Z,101170.50
2023-04-18T13:00:18.847Z,101156.00
2023-04-18T13:02:46.142Z,101153.38
2023-04-18T13:05:15.359Z,101171.56
2023-04-18T13:07:42.736Z,101152.22
2023-04-18T13:10:11.893Z,101152.41
2023-04-18T13:12:39.600Z,101153.25
2023-04-18T13:15:07.595Z,101150.88
2023-04-18T13:17:36.766Z,101145.00
2023-04-18T13:20:10.530Z,101156.00
2023-04-18T13:22:37.640Z,101140.56
2023-04-18T13:25:04.510Z,101144.28
2023-04-18T13:27:31.264Z,101145.50
2023-04-18T13:29:58.323Z,101136.97
2023-04-18T13:32:26.427Z,101147.03
2023-04-18T13:34:53.237Z,101150.19
2023-04-18T13:37:21.124Z,101144.28
2023-04-18T13:39:48.918Z,101176.00
2023-04-18T13:42:16.381Z,101148.59
2023-04-18T13:44:43.142Z,101144.66
2023-04-18T13:47:09.794Z,101146.19
2023-04-18T13:49:37.651Z,101154.06
2023-04-18T13:52:04.575Z,101141.34
2023-04-18T13:54:32.472Z,101145.25
2023-04-18T13:57:03.261Z,101160.19
2023-04-18T13:59:31.983Z,101140.63
2023-04-18T14:01:58.996Z,101141.91
2023-04-18T14:04:26.157Z,101143.31
2023-04-18T14:06:53.320Z,101146.38
2023-04-18T14:09:19.977Z,101151.41
2023-04-18T14:11:46.764Z,101152.75
2023-04-18T14:14:13.989Z,101158.47
2023-04-18T14:16:40.783Z,101144.72
2023-04-18T14:19:07.638Z,101143.31
2023-04-18T14:21:34.357Z,101126.78
2023-04-18T14:24:01.159Z,101143.75
2023-04-18T14:26:27.837Z,101139.47
2023-04-18T14:28:54.442Z,101139.56
2023-04-18T14:31:21.746Z,101144.84
2023-04-18T14:33:48.709Z,101126.88
2023-04-18T14:36:16.864Z,101114.06
2023-04-18T14:38:48.184Z,101109.66
2023-04-18T14:41:15.020Z,101099.72
2023-04-18T14:43:41.622Z,101127.38
2023-04-18T14:46:18.137Z,101115.03
2023-04-18T14:48:46.547Z,101128.66
2023-04-18T14:51:14.551Z,101115.66
2023-04-18T14:53:41.503Z,101106.16
2023-04-18T14:56:08.279Z,101102.22
2023-04-18T14:58:34.898Z,101107.28
2023-04-18T15:01:01.904Z,101105.16
2023-04-18T15:03:28.875Z,101110.78
2023-04-18T15:05:56.430Z,101090.91
2023-04-18T15:08:23.072Z,101102.97
2023-04-18T15:10:49.651Z,101107.50
2023-04-18T15:13:16.282Z,101086.28
2023-04-18T15:15:44.154Z,101118.97
2023-04-18T15:18:11.286Z,101097.41
2023-04-18T15:20:39.526Z,101098.38
2023-04-18T15:23:07.179Z,101084.16
2023-04-18T15:25:35.149Z,101090.75
2023-04-18T15:28:01.822Z,101089.72
2023-04-18T15:30:28.561Z,101098.88
2023-04-18T15:32:55.743Z,101090.13
2023-04-18T15:35:22.563Z,101091.50
2023-04-18T15:37:49.302Z,101085.31
2023-04-18T15:40:18.831Z,101086.78
2023-04-18T15:42:45.804Z,101098.97
2023-04-18T15:45:12.525Z,101083.25
2023-04-18T15:47:39.251Z,101083.78
2023-04-18T15:50:06.995Z,101099.50
2023-04-18T15:52:33.924Z,101086.28
2023-04-18T15:55:00.825Z,101088.69
2023-04-18T15:57:29.706Z,101083.84
2023-04-18T15:59:56.766Z,101097.47
2023-04-18T16:02:23.495Z,101085.53
2023-04-18T16:04:50.255Z,101083.28
2023-04-18T16:07:16.996Z,101071.03
2023-04-18T16:09:43.674Z,101084.88
2023-04-18T16:12:10.311Z,101078.97
2023-04-18T16:14:38.096Z,101073.84
2023-04-18T16:17:04.776Z,101085.13
2023-04-18T16:19:33.304Z,101063.56
2023-04-18T16:22:01.220Z,101073.06
2023-04-18T16:24:30.205Z,101078.38
2023-04-18T16:26:56.953Z,101080.09
2023-04-18T16:29:23.852Z,101068.50
2023-04-18T16:31:51.798Z,101065.44
2023-04-18T16:34:18.642Z,101075.94
2023-04-18T16:36:45.225Z,101060.34
2023-04-18T16:39:12.229Z,101063.16
2023-04-18T16:41:38.948Z,101060.50
2023-04-18T16:44:05.583Z,101059.94
2023-04-18T16:46:32.539Z,101068.81
2023-04-18T16:48:59.537Z,101075.84
2023-04-18T16:51:26.943Z,101082.72
2023-04-18T16:53:53.531Z,101069.44
2023-04-18T16:56:20.246Z,101082.88
2023-04-18T16:58:46.962Z,101073.09
2023-04-18T17:01:13.576Z,101073.09
2023-04-18T17:03:40.355Z,101077.44
2023-04-18T17:06:07.124Z,101086.81
2023-04-18T17:08:34.225Z,101083.91
2023-04-18T17:11:02.330Z,101085.00
2023-04-18T17:13:31.448Z,101082.16
2023-04-18T17:15:58.628Z,101078.19
2023-04-18T17:18:25.379Z,101095.91
2023-04-18T17:20:52.246Z,101063.56
2023-04-18T17:23:18.909Z,101074.47
2023-04-18T17:25:46.300Z,101088.44
2023-04-18T17:28:13.912Z,101078.72
2023-04-18T17:30:43.761Z,101074.16
2023-04-18T17:33:10.759Z,101050.34
2023-04-18T17:35:39.916Z,101074.13
2023-04-18T17:38:06.603Z,101070.94
2023-04-18T17:40:33.334Z,101074.13
2023-04-18T17:42:59.918Z,101076.75
2023-04-18T17:45:26.598Z,101071.34
2023-04-18T17:47:53.816Z,101058.06
2023-04-18T17:50:20.632Z,101060.75
2023-04-18T17:52:47.340Z,101073.09
2023-04-18T17:55:14.008Z,101065.97
2023-04-18T17:57:40.641Z,101058.97
2023-04-18T18:00:11.114Z,101058.16
2023-04-18T18:02:38.820Z,101054.03
2023-04-18T18:05:05.857Z,101064.16
2023-04-18T18:07:34.866Z,101062.09
2023-04-18T18:10:02.498Z,101079.72
2023-04-18T18:12:29.259Z,101062.28
2023-04-18T18:14:57.325Z,101063.59
2023-04-18T18:17:24.621Z,101066.75
2023-04-18T18:19:51.243Z,101060.00
2023-04-18T18:22:18.334Z,101062.34
2023-04-18T18:24:45.570Z,101082.44
2023-04-18T18:27:12.230Z,101056.09
2023-04-18T18:29:38.793Z,101063.28
2023-04-18T18:32:05.843Z,101069.44
2023-04-18T18:34:32.419Z,101064.84
2023-04-18T18:36:59.019Z,101063.41
2023-04-18T18:39:25.660Z,101059.44
2023-04-18T18:41:52.317Z,101072.75
2023-04-18T18:44:19.026Z,101064.31
2023-04-18T18:46:45.674Z,101076.56
2023-04-18T18:49:12.481Z,101070.91
2023-04-18T18:51:40.949Z,101062.25
2023-04-18T18:54:07.655Z,101076.19
2023-04-18T18:56:34.303Z,101080.38
2023-04-18T18:59:00.889Z,101078.94
2023-04-18T19:01:30.209Z,101078.28
2023-04-18T19:03:56.934Z,101086.28
2023-04-18T19:06:23.726Z,101098.28
2023-04-18T19:08:50.365Z,101090.06
2023-04-18T19:11:18.275Z,101089.66
2023-04-18T19:13:45.702Z,101105.25
2023-04-18T19:16:12.730Z,101102.13
2023-04-18T19:18:40.673Z,101105.72
2023-04-18T19:21:07.279Z,101106.34
2023-04-18T19:23:34.055Z,101110.53
2023-04-18T19:26:00.699Z,101103.41
2023-04-18T19:28:27.729Z,101120.88
2023-04-18T19:30:54.379Z,101104.06
2023-04-18T19:33:21.353Z,101103.41
2023-04-18T19:35:47.957Z,101101.50
2023-04-18T19:38:14.549Z,101103.63
2023-04-18T19:40:41.194Z,101106.78
2023-04-18T19:43:07.802Z,101112.69
2023-04-18T19:45:34.645Z,101112.28
2023-04-18T19:48:01.328Z,101117.56
2023-04-18T19:50:28.404Z,101109.94
2023-04-18T19:52:55.014Z,101117.13
2023-04-18T19:55:21.886Z,101108.28
2023-04-18T19:57:48.603Z,101116.72
2023-04-18T20:00:15.980Z,101099.66
2023-04-18T20:02:43.010Z,101120.50
2023-04-18T20:05:10.218Z,101115.44
2023-04-18T20:07:37.174Z,101117.53
2023-04-18T20:10:04.537Z,101120.44
2023-04-18T20:12:31.478Z,101127.13
2023-04-18T20:14:59.013Z,101114.50
2023-04-18T20:17:26.199Z,101121.41
2023-04-18T20:19:53.100Z,101124.34
2023-04-18T20:22:19.896Z,101123.47
2023-04-18T20:24:48.195Z,101120.09
2023-04-18T20:27:15.339Z,101115.00
2023-04-18T20:29:42.680Z,101128.06
2023-04-18T20:32:11.618Z,101137.88
2023-04-18T20:34:38.578Z,101136.13
2023-04-18T20:37:09.276Z,101140.75
2023-04-18T20:39:38.027Z,101136.72
2023-04-18T20:42:04.934Z,101144.22
2023-04-18T20:44:34.358Z,101134.97
2023-04-18T20:47:01.187Z,101141.44
2023-04-18T20:49:29.557Z,101136.78
2023-04-18T20:51:56.318Z,101147.09
2023-04-18T20:54:23.138Z,101154.22
2023-04-18T20:56:49.738Z,101155.06
2023-04-18T20:59:16.367Z,101152.72
2023-04-18T21:01:43.040Z,101149.72
2023-04-18T21:04:09.755Z,101176.19
2023-04-18T21:06:36.766Z,101157.66
2023-04-18T21:09:03.860Z,101179.44
2023-04-18T21:11:30.683Z,101159.28
2023-04-18T21:13:57.330Z,101167.88
2023-04-18T21:16:24.336Z,101171.84
2023-04-18T21:18:51.042Z,101160.53
2023-04-18T21:21:17.959Z,101165.16
2023-04-18T21:23:44.916Z,101170.16
2023-04-18T21:26:13.649Z,101174.34
2023-04-18T21:28:57.614Z,101175.41
2023-04-18T21:31:26.155Z,101171.00
2023-04-18T21:33:57.152Z,101170.03
2023-04-18T21:36:26.513Z,101168.50
2023-04-18T21:38:54.541Z,101166.38
2023-04-18T21:41:21.564Z,101167.69
2023-04-18T21:43:48.809Z,101168.50
2023-04-18T21:46:16.151Z,101170.03
2023-04-18T21:48:45.265Z,101171.50
2023-04-18T21:51:14.071Z,101164.13
2023-04-18T21:53:41.705Z,101161.41
2023-04-18T21:56:09.118Z,101163.31
2023-04-18T21:58:35.883Z,101162.22
2023-04-18T22:01:02.776Z,101161.84
2023-04-18T22:03:29.749Z,101161.88
2023-04-18T22:05:56.702Z,101152.63
2023-04-18T22:08:26.309Z,101154.34
2023-04-18T22:10:57.762Z,101153.09
2023-04-18T22:13:25.675Z,101145.72
2023-04-18T22:15:52.271Z,101154.59
2023-04-18T22:18:19.202Z,101156.91
2023-04-18T22:20:46.962Z,101155.47
2023-04-18T22:23:14.185Z,101154.81
2023-04-18T22:25:40.983Z,101155.22
2023-04-18T22:28:07.772Z,101154.16
2023-04-18T22:30:34.776Z,101155.66
2023-04-18T22:33:01.604Z,101158.59
2023-04-18T22:35:28.449Z,101160.91
2023-04-18T22:37:55.888Z,101156.91
2023-04-18T22:40:22.580Z,101166.13
2023-04-18T22:42:51.859Z,101154.16
2023-04-18T22:45:19.456Z,101156.13
2023-04-18T22:47:46.824Z,101154.03
2023-04-18T22:50:14.292Z,101146.63
2023-04-18T22:52:41.318Z,101145.59
2023-04-18T22:55:08.644Z,101156.28
2023-04-18T22:57:35.358Z,101147.25
2023-04-18T23:00:02.107Z,101148.31
2023-04-18T23:02:28.862Z,101144.09
2023-04-18T23:04:58.436Z,101142.22
2023-04-18T23:07:25.333Z,101148.06
2023-04-18T23:09:51.939Z,101146.63
2023-04-18T23:12:18.569Z,101153.38
2023-04-18T23:14:45.332Z,101147.69
2023-04-18T23:17:11.964Z,101148.53
2023-04-18T23:19:38.971Z,101152.34
2023-04-18T23:22:05.742Z,101155.06
2023-04-18T23:24:32.374Z,101150.06
2023-04-18T23:26:59.068Z,101154.47
2023-04-18T23:29:25.663Z,101155.09
2023-04-18T23:31:52.285Z,101156.34
2023-04-18T23:34:18.895Z,101153.63
2023-04-18T23:36:45.807Z,101155.94
2023-04-18T23:39:12.467Z,101142.88
2023-04-18T23:41:39.082Z,101148.94
2023-04-18T23:44:05.779Z,101158.84
2023-04-18T23:46:34.290Z,101141.03
2023-04-18T23:49:02.368Z,101141.66
2023-04-18T23:51:29.034Z,101133.69
2023-04-18T23:53:55.631Z,101141.03
2023-04-18T23:56:23.221Z,101138.28
2023-04-18T23:58:50.623Z,101133.84
